Time;durP1;ratioP1;P1;durP2;ratioP2;P2;SDS_P1;SDS_P2;PMS_P1;PMS_P2;Temp;Humidity;BMP_temperature;BMP_pressure;BME280_temperature;BME280_humidity;BME280_pressure;Samples;Min_cycle;Max_cycle;Signal;HPM_P1;HPM_P2
2021/07/20 00:01:27;;;;;;;13.70;9.15;;;;;;;;;;143742;563;45020;-53
2021/07/20 00:03:54;;;;;;;9.90;8.50;;;;;;;;;;143744;577;45021;-53
2021/07/20 00:06:21;;;;;;;14.65;10.07;;;;;;;;;;143732;671;47022;-53
2021/07/20 00:08:48;;;;;;;13.20;9.77;;;;;;;;;;143737;585;47012;-52
2021/07/20 00:11:15;;;;;;;12.88;9.38;;;;;;;;;;143737;583;45915;-53
2021/07/20 00:13:42;;;;;;;13.43;9.82;;;;;;;;;;143742;573;45020;-53
2021/07/20 00:16:09;;;;;;;12.88;9.75;;;;;;;;;;143740;588;47020;-52
2021/07/20 00:18:37;;;;;;;12.05;9.32;;;;;;;;;;143738;579;46013;-52
2021/07/20 00:21:09;;;;;;;13.20;10.43;;;;;;;;;;143741;566;45021;-53
2021/07/20 00:23:36;;;;;;;12.68;10.43;;;;;;;;;;143741;589;47020;-53
2021/07/20 00:26:06;;;;;;;12.52;10.15;;;;;;;;;;143739;629;47022;-52
2021/07/20 00:28:33;;;;;;;14.90;10.27;;;;;;;;;;143738;640;47012;-53
2021/07/20 00:31:00;;;;;;;12.15;9.95;;;;;;;;;;143735;578;45914;-53
2021/07/20 00:33:27;;;;;;;11.93;10.15;;;;;;;;;;143743;589;45021;-53
2021/07/20 00:35:54;;;;;;;17.17;11.85;;;;;;;;;;143739;605;47020;-53
2021/07/20 00:38:22;;;;;;;17.42;12.63;;;;;;;;;;143739;608;47012;-52
2021/07/20 00:40:49;;;;;;;28.65;14.80;;;;;;;;;;143740;586;45021;-53
2021/07/20 00:43:16;;;;;;;17.37;13.10;;;;;;;;;;143743;606;46020;-53
2021/07/20 00:45:43;;;;;;;18.37;13.18;;;;;;;;;;143739;573;47020;-53
2021/07/20 00:48:10;;;;;;;18.67;13.77;;;;;;;;;;143739;583;46025;-53
2021/07/20 00:50:42;;;;;;;17.23;12.00;;;;;;;;;;143737;618;45914;-53
2021/07/20 00:53:12;;;;;;;13.48;11.35;;;;;;;;;;143743;618;45020;-54
2021/07/20 00:55:41;;;;;;;18.15;12.80;;;;;;;;;;143732;639;47022;-54
2021/07/20 00:58:09;;;;;;;13.13;11.63;;;;;;;;;;143737;611;47012;-53
2021/07/20 01:00:37;;;;;;;15.10;11.07;;;;;;;;;;143738;580;45914;-53
2021/07/20 01:03:06;;;;;;;14.55;11.43;;;;;;;;;;143744;566;45021;-53
2021/07/20 01:05:34;;;;;;;14.98;10.75;;;;;;;;;;143740;639;47020;-53
2021/07/20 01:08:05;;;;;;;15.48;11.15;;;;;;;;;;143736;590;47012;-54
2021/07/20 01:10:33;;;;;;;13.75;11.10;;;;;;;;;;143742;564;45021;-53
2021/07/20 01:13:01;;;;;;;16.80;10.15;;;;;;;;;;143744;570;45021;-52
2021/07/20 01:15:29;;;;;;;17.30;10.52;;;;;;;;;;143739;589;47020;-52
2021/07/20 01:17:57;;;;;;;14.38;10.48;;;;;;;;;;143737;587;47012;-53
2021/07/20 01:20:28;;;;;;;14.18;10.10;;;;;;;;;;143735;578;45021;-54
2021/07/20 01:23:06;;;;;;;13.35;10.32;;;;;;;;;;143743;571;45020;-53
2021/07/20 01:25:34;;;;;;;16.12;10.98;;;;;;;;;;143741;565;47021;-53
2021/07/20 01:28:05;;;;;;;13.77;11.02;;;;;;;;;;143737;624;47012;-52
2021/07/20 01:30:34;;;;;;;15.05;10.82;;;;;;;;;;143738;649;45020;-53
2021/07/20 01:33:02;;;;;;;12.70;10.10;;;;;;;;;;143742;582;46020;-53
2021/07/20 01:35:31;;;;;;;13.60;11.15;;;;;;;;;;143739;616;47020;-52
2021/07/20 01:37:59;;;;;;;13.32;9.80;;;;;;;;;;143738;578;47012;-53
2021/07/20 01:40:27;;;;;;;11.20;9.55;;;;;;;;;;143739;699;45021;-53
2021/07/20 01:42:55;;;;;;;12.40;10.68;;;;;;;;;;143743;663;45020;-53
2021/07/20 01:45:23;;;;;;;13.00;10.07;;;;;;;;;;143734;579;47020;-53
2021/07/20 01:47:51;;;;;;;14.15;11.12;;;;;;;;;;143739;636;47012;-53
2021/07/20 01:50:20;;;;;;;13.52;11.05;;;;;;;;;;143739;625;45033;-53
2021/07/20 01:52:48;;;;;;;12.00;10.07;;;;;;;;;;143742;569;45020;-52
2021/07/20 01:55:16;;;;;;;13.23;10.57;;;;;;;;;;143738;587;47022;-53
2021/07/20 01:57:44;;;;;;;11.20;10.10;;;;;;;;;;143737;564;47012;-52
2021/07/20 02:00:18;;;;;;;13.90;10.88;;;;;;;;;;143741;578;45915;-53
2021/07/20 02:03:17;;;;;;;12.27;10.30;;;;;;;;;;143742;738;46020;-53
2021/07/20 02:08:36;;;;;;;11.70;9.88;;;;;;;;;;143741;613;45914;-53
2021/07/20 02:11:18;;;;;;;12.85;9.60;;;;;;;;;;143734;599;45026;-53
2021/07/20 02:13:55;;;;;;;15.80;10.73;;;;;;;;;;143744;626;45026;-53
2021/07/20 02:16:32;;;;;;;15.23;11.18;;;;;;;;;;143741;599;47020;-53
2021/07/20 02:19:09;;;;;;;13.05;10.63;;;;;;;;;;143737;571;47012;-52
2021/07/20 02:21:42;;;;;;;14.90;10.40;;;;;;;;;;143740;601;45912;-53
2021/07/20 02:24:11;;;;;;;17.75;10.88;;;;;;;;;;143743;593;46020;-52
2021/07/20 02:26:40;;;;;;;17.10;11.38;;;;;;;;;;143738;598;47023;-52
2021/07/20 02:29:08;;;;;;;14.00;10.52;;;;;;;;;;143734;579;47012;-53
2021/07/20 02:31:37;;;;;;;12.90;10.77;;;;;;;;;;143738;570;45912;-52
2021/07/20 02:34:05;;;;;;;12.57;10.07;;;;;;;;;;143743;630;45021;-52
2021/07/20 02:36:35;;;;;;;12.88;9.70;;;;;;;;;;143733;582;47020;-52
2021/07/20 02:39:03;;;;;;;11.70;9.77;;;;;;;;;;143739;597;47012;-52
2021/07/20 02:41:31;;;;;;;12.70;9.80;;;;;;;;;;143740;564;45021;-53
2021/07/20 02:43:59;;;;;;;16.67;10.63;;;;;;;;;;143742;570;46020;-53
2021/07/20 02:46:27;;;;;;;14.60;9.90;;;;;;;;;;143740;577;47021;-52
2021/07/20 02:48:56;;;;;;;13.07;10.00;;;;;;;;;;143738;593;47013;-52
2021/07/20 02:51:24;;;;;;;11.50;9.77;;;;;;;;;;143738;591;45912;-52
2021/07/20 02:53:55;;;;;;;13.98;9.00;;;;;;;;;;143742;567;45020;-52
2021/07/20 02:56:24;;;;;;;13.43;10.10;;;;;;;;;;143740;613;47023;-52
2021/07/20 02:58:53;;;;;;;13.70;9.63;;;;;;;;;;143736;587;47012;-52
2021/07/20 03:01:22;;;;;;;12.73;9.75;;;;;;;;;;143734;614;45912;-53
2021/07/20 03:03:49;;;;;;;13.30;9.48;;;;;;;;;;143743;650;46021;-52
2021/07/20 03:06:17;;;;;;;13.02;8.65;;;;;;;;;;143742;598;45022;-53
2021/07/20 03:08:46;;;;;;;11.12;9.43;;;;;;;;;;143738;564;46012;-52
2021/07/20 03:11:17;;;;;;;11.32;8.40;;;;;;;;;;143739;604;45021;-53
2021/07/20 03:13:51;;;;;;;11.02;9.02;;;;;;;;;;143743;582;45020;-53
2021/07/20 03:16:19;;;;;;;10.77;9.20;;;;;;;;;;143741;608;47020;-52
2021/07/20 03:18:47;;;;;;;11.02;9.00;;;;;;;;;;143739;585;47013;-53
2021/07/20 03:21:16;;;;;;;12.02;9.70;;;;;;;;;;143738;621;45912;-53
2021/07/20 03:23:45;;;;;;;14.70;10.07;;;;;;;;;;143744;617;45020;-53
2021/07/20 03:26:14;;;;;;;12.05;9.57;;;;;;;;;;143732;579;47021;-52
2021/07/20 03:28:43;;;;;;;12.77;9.90;;;;;;;;;;143739;673;47012;-53
2021/07/20 03:31:12;;;;;;;13.18;10.35;;;;;;;;;;143737;583;45912;-53
2021/07/20 03:33:40;;;;;;;10.68;9.52;;;;;;;;;;143741;571;45021;-53
2021/07/20 03:36:08;;;;;;;14.40;10.25;;;;;;;;;;143739;625;47022;-52
2021/07/20 03:38:36;;;;;;;13.30;10.52;;;;;;;;;;143736;615;47013;-52
2021/07/20 03:41:04;;;;;;;13.45;9.57;;;;;;;;;;143739;587;45021;-53
2021/07/20 03:43:32;;;;;;;15.27;9.90;;;;;;;;;;143744;618;45020;-52
2021/07/20 03:46:01;;;;;;;14.48;10.68;;;;;;;;;;143739;606;47021;-53
2021/07/20 03:48:32;;;;;;;17.10;12.02;;;;;;;;;;143736;634;47012;-53
2021/07/20 03:51:00;;;;;;;18.17;11.15;;;;;;;;;;143736;611;45020;-52
2021/07/20 03:53:28;;;;;;;11.98;9.98;;;;;;;;;;143743;595;45020;-52
2021/07/20 03:56:03;;;;;;;12.90;10.50;;;;;;;;;;143739;614;47020;-52
2021/07/20 03:58:33;;;;;;;16.12;11.27;;;;;;;;;;143737;602;47012;-53
2021/07/20 04:01:02;;;;;;;16.20;11.25;;;;;;;;;;143740;586;45912;-52
2021/07/20 04:03:32;;;;;;;11.57;10.30;;;;;;;;;;143741;610;46021;-52
2021/07/20 04:06:05;;;;;;;13.62;9.18;;;;;;;;;;143740;569;47020;-52
2021/07/20 04:08:33;;;;;;;13.02;10.18;;;;;;;;;;143737;621;47013;-52
2021/07/20 04:11:02;;;;;;;13.45;9.35;;;;;;;;;;143742;626;45021;-52
2021/07/20 04:13:31;;;;;;;11.52;9.93;;;;;;;;;;143743;577;45020;-52
2021/07/20 04:16:01;;;;;;;16.37;10.57;;;;;;;;;;143731;602;47022;-52
2021/07/20 04:18:31;;;;;;;14.73;10.82;;;;;;;;;;143739;589;46013;-52
2021/07/20 04:20:58;;;;;;;15.93;11.20;;;;;;;;;;143739;586;45912;-51
2021/07/20 04:23:27;;;;;;;19.27;10.93;;;;;;;;;;143742;564;45020;-51
2021/07/20 04:25:55;;;;;;;19.35;10.68;;;;;;;;;;143739;602;47021;-51
2021/07/20 04:28:23;;;;;;;18.30;10.90;;;;;;;;;;143737;586;48032;-52
2021/07/20 04:30:51;;;;;;;19.55;11.10;;;;;;;;;;143739;614;45020;-51
2021/07/20 04:33:25;;;;;;;17.45;10.60;;;;;;;;;;143742;620;46012;-51
2021/07/20 04:35:54;;;;;;;17.40;10.07;;;;;;;;;;143736;564;47020;-51
2021/07/20 04:38:26;;;;;;;13.62;10.43;;;;;;;;;;143737;584;47012;-51
2021/07/20 04:40:53;;;;;;;16.45;10.10;;;;;;;;;;143735;569;45021;-52
2021/07/20 04:43:21;;;;;;;24.37;10.85;;;;;;;;;;143745;626;45020;-52
2021/07/20 04:45:51;;;;;;;17.90;10.75;;;;;;;;;;143737;595;47022;-51
2021/07/20 04:48:18;;;;;;;18.60;11.00;;;;;;;;;;143740;592;47012;-52
2021/07/20 04:50:46;;;;;;;25.48;10.63;;;;;;;;;;143739;618;45912;-51
2021/07/20 04:53:14;;;;;;;21.23;10.50;;;;;;;;;;143743;573;46020;-52
2021/07/20 04:55:43;;;;;;;14.87;10.10;;;;;;;;;;143742;604;47021;-52
2021/07/20 04:58:12;;;;;;;17.23;9.35;;;;;;;;;;143738;602;47012;-52
2021/07/20 05:00:39;;;;;;;14.70;8.88;;;;;;;;;;143738;588;46912;-53
2021/07/20 05:03:09;;;;;;;20.80;11.48;;;;;;;;;;143742;585;45021;-52
2021/07/20 05:05:38;;;;;;;17.55;9.95;;;;;;;;;;143733;573;47020;-52
2021/07/20 05:08:13;;;;;;;20.30;9.52;;;;;;;;;;143738;589;47013;-53
2021/07/20 05:10:44;;;;;;;19.65;10.00;;;;;;;;;;143740;594;45021;-53
2021/07/20 05:13:16;;;;;;;15.77;9.38;;;;;;;;;;143743;582;46020;-53
2021/07/20 05:15:50;;;;;;;16.37;8.95;;;;;;;;;;143742;570;47020;-53
2021/07/20 05:18:17;;;;;;;18.50;8.68;;;;;;;;;;143737;623;47012;-53
2021/07/20 05:20:45;;;;;;;18.60;8.98;;;;;;;;;;143737;697;45020;-52
2021/07/20 05:23:15;;;;;;;16.87;8.75;;;;;;;;;;143744;625;45020;-52
2021/07/20 05:25:47;;;;;;;12.52;7.35;;;;;;;;;;143739;675;47020;-53
2021/07/20 05:28:16;;;;;;;12.60;7.68;;;;;;;;;;143738;564;47012;-52
2021/07/20 05:30:43;;;;;;;15.68;7.55;;;;;;;;;;143736;564;45912;-53
2021/07/20 05:33:11;;;;;;;12.80;7.78;;;;;;;;;;143745;569;45021;-52
2021/07/20 05:35:39;;;;;;;14.87;8.98;;;;;;;;;;143740;590;47020;-52
2021/07/20 05:38:08;;;;;;;11.52;7.65;;;;;;;;;;143740;578;47012;-54
2021/07/20 05:40:35;;;;;;;16.23;8.10;;;;;;;;;;143741;582;45021;-53
2021/07/20 05:43:03;;;;;;;10.70;7.68;;;;;;;;;;143744;575;45020;-54
2021/07/20 05:45:31;;;;;;;20.25;8.45;;;;;;;;;;143741;593;47020;-53
2021/07/20 05:47:59;;;;;;;11.48;7.35;;;;;;;;;;143737;586;47012;-53
2021/07/20 05:50:26;;;;;;;12.32;7.87;;;;;;;;;;143741;715;45020;-54
2021/07/20 05:52:56;;;;;;;16.85;7.85;;;;;;;;;;143744;588;45021;-54
2021/07/20 05:55:24;;;;;;;16.23;8.07;;;;;;;;;;143736;598;46029;-52
2021/07/20 05:57:52;;;;;;;13.32;8.65;;;;;;;;;;143737;571;47012;-53
2021/07/20 06:00:24;;;;;;;15.20;8.73;;;;;;;;;;143742;569;45021;-53
2021/07/20 06:02:53;;;;;;;17.05;8.90;;;;;;;;;;143745;650;45021;-53
2021/07/20 06:05:21;;;;;;;13.32;7.70;;;;;;;;;;143740;575;47020;-52
2021/07/20 06:07:49;;;;;;;14.13;8.27;;;;;;;;;;143741;567;46013;-52
2021/07/20 06:10:20;;;;;;;21.48;8.70;;;;;;;;;;143741;572;45913;-52
2021/07/20 06:12:49;;;;;;;15.57;9.20;;;;;;;;;;143744;579;45020;-52
2021/07/20 06:15:17;;;;;;;13.82;7.82;;;;;;;;;;143741;574;47022;-52
2021/07/20 06:17:45;;;;;;;13.52;8.68;;;;;;;;;;143738;613;47012;-53
2021/07/20 06:20:13;;;;;;;20.12;9.25;;;;;;;;;;143735;617;45912;-52
2021/07/20 06:22:45;;;;;;;15.68;7.30;;;;;;;;;;143744;655;45020;-52
2021/07/20 06:25:15;;;;;;;14.32;8.95;;;;;;;;;;143738;577;47020;-52
2021/07/20 06:27:44;;;;;;;15.68;8.55;;;;;;;;;;143736;617;47012;-52
2021/07/20 06:30:13;;;;;;;11.85;7.93;;;;;;;;;;143741;662;45912;-53
2021/07/20 06:32:41;;;;;;;12.55;8.80;;;;;;;;;;143744;572;46012;-53
2021/07/20 06:35:12;;;;;;;18.05;8.52;;;;;;;;;;143741;624;47020;-53
2021/07/20 06:37:42;;;;;;;21.50;9.73;;;;;;;;;;143742;616;47020;-52
2021/07/20 06:40:12;;;;;;;16.50;7.87;;;;;;;;;;143742;596;45021;-53
2021/07/20 06:42:40;;;;;;;11.43;8.48;;;;;;;;;;143746;569;45020;-53
2021/07/20 06:45:08;;;;;;;18.73;9.20;;;;;;;;;;143734;638;47021;-53
2021/07/20 06:47:39;;;;;;;12.80;9.30;;;;;;;;;;143737;594;47017;-53
2021/07/20 06:50:10;;;;;;;13.52;9.32;;;;;;;;;;143741;575;45912;-52
2021/07/20 06:52:38;;;;;;;13.90;8.70;;;;;;;;;;143744;617;45021;-53
2021/07/20 06:55:06;;;;;;;19.80;11.12;;;;;;;;;;143740;574;47020;-53
2021/07/20 06:57:36;;;;;;;14.95;9.55;;;;;;;;;;143739;587;47012;-53
2021/07/20 07:00:06;;;;;;;18.00;11.52;;;;;;;;;;143742;677;45912;-53
2021/07/20 07:02:35;;;;;;;14.98;8.45;;;;;;;;;;143741;655;48012;-53
2021/07/20 07:05:14;;;;;;;15.40;8.32;;;;;;;;;;143738;668;50020;-52
2021/07/20 07:07:42;;;;;;;12.55;8.25;;;;;;;;;;143735;661;48031;-53
2021/07/20 07:10:12;;;;;;;10.93;8.18;;;;;;;;;;143732;588;48014;-53
2021/07/20 07:12:40;;;;;;;13.90;8.25;;;;;;;;;;143746;596;45020;-53
2021/07/20 07:15:08;;;;;;;14.00;8.15;;;;;;;;;;143741;635;47021;-52
2021/07/20 07:17:37;;;;;;;19.20;8.57;;;;;;;;;;143737;798;47012;-53
2021/07/20 07:20:07;;;;;;;16.70;8.02;;;;;;;;;;143742;645;45912;-53
2021/07/20 07:22:36;;;;;;;18.92;8.00;;;;;;;;;;143744;660;45021;-53
2021/07/20 07:25:04;;;;;;;10.00;7.30;;;;;;;;;;143740;586;48020;-53
2021/07/20 07:27:32;;;;;;;17.30;8.65;;;;;;;;;;143739;696;47012;-53
2021/07/20 07:30:01;;;;;;;17.90;8.32;;;;;;;;;;143743;623;45021;-53
2021/07/20 07:32:30;;;;;;;11.10;6.50;;;;;;;;;;143745;647;46021;-53
2021/07/20 07:34:57;;;;;;;9.57;7.53;;;;;;;;;;143734;637;47020;-52
2021/07/20 07:37:28;;;;;;;11.52;7.10;;;;;;;;;;143739;637;47013;-53
2021/07/20 07:39:59;;;;;;;10.63;6.93;;;;;;;;;;143743;582;45021;-53
2021/07/20 07:42:28;;;;;;;10.20;6.75;;;;;;;;;;143746;678;45020;-52
2021/07/20 07:44:55;;;;;;;12.10;7.18;;;;;;;;;;143743;618;47021;-52
2021/07/20 07:47:24;;;;;;;9.48;6.82;;;;;;;;;;143740;585;47012;-53
2021/07/20 07:49:52;;;;;;;10.27;6.43;;;;;;;;;;143740;621;45912;-53
2021/07/20 07:52:20;;;;;;;12.37;7.45;;;;;;;;;;143746;565;45021;-53
2021/07/20 07:54:48;;;;;;;10.73;7.25;;;;;;;;;;143740;571;47023;-53
2021/07/20 07:57:20;;;;;;;11.65;6.62;;;;;;;;;;143739;575;47012;-53
2021/07/20 07:59:52;;;;;;;13.60;7.97;;;;;;;;;;143736;672;45913;-52
2021/07/20 08:02:25;;;;;;;12.40;7.93;;;;;;;;;;143745;597;46020;-52
2021/07/20 08:04:53;;;;;;;12.98;7.03;;;;;;;;;;143742;571;47022;-52
2021/07/20 08:07:20;;;;;;;13.52;7.70;;;;;;;;;;143740;591;47012;-53
2021/07/20 08:09:50;;;;;;;10.02;6.85;;;;;;;;;;143741;635;45912;-53
2021/07/20 08:12:18;;;;;;;10.98;6.72;;;;;;;;;;143744;585;45020;-53
2021/07/20 08:14:45;;;;;;;14.65;7.05;;;;;;;;;;143743;715;47020;-53
2021/07/20 08:17:12;;;;;;;14.27;7.70;;;;;;;;;;143738;581;47012;-52
2021/07/20 08:19:40;;;;;;;13.30;6.40;;;;;;;;;;143743;571;47020;-53
2021/07/20 08:22:11;;;;;;;11.55;6.20;;;;;;;;;;143737;553;49020;-53
2021/07/20 08:25:02;;;;;;;8.65;6.25;;;;;;;;;;143735;597;47023;-53
2021/07/20 08:27:44;;;;;;;12.18;6.72;;;;;;;;;;143736;603;47012;-53
2021/07/20 08:30:12;;;;;;;11.67;6.60;;;;;;;;;;143740;573;45912;-53
2021/07/20 08:32:51;;;;;;;13.57;6.40;;;;;;;;;;143745;575;45021;-53
2021/07/20 08:35:22;;;;;;;9.23;6.18;;;;;;;;;;143741;574;47022;-52
2021/07/20 08:37:52;;;;;;;7.68;6.57;;;;;;;;;;143741;598;47012;-53
2021/07/20 08:41:09;;;;;;;11.48;6.15;;;;;;;;;;143742;564;45912;-53
2021/07/20 08:44:11;;;;;;;10.10;5.95;;;;;;;;;;143746;582;45020;-52
2021/07/20 08:47:03;;;;;;;8.15;6.20;;;;;;;;;;143741;583;47021;-52
2021/07/20 08:50:20;;;;;;;11.75;7.15;;;;;;;;;;143738;617;47012;-52
2021/07/20 08:53:11;;;;;;;9.57;5.95;;;;;;;;;;143738;564;45021;-53
2021/07/20 08:55:44;;;;;;;7.75;5.55;;;;;;;;;;143744;612;46014;-53
2021/07/20 08:58:20;;;;;;;;;;;;;;;;;;143737;982;47022;-54
2021/07/20 09:00:49;;;;;;;9.90;5.90;;;;;;;;;;143747;570;46030;-53
2021/07/20 09:03:55;;;;;;;9.40;6.68;;;;;;;;;;143743;590;45020;-54
2021/07/20 09:06:33;;;;;;;8.00;5.72;;;;;;;;;;143744;586;46011;-55
2021/07/20 09:09:30;;;;;;;10.55;6.20;;;;;;;;;;143742;612;47023;-53
2021/07/20 09:12:09;;;;;;;7.85;6.28;;;;;;;;;;143740;569;47012;-52
2021/07/20 09:14:42;;;;;;;10.27;5.62;;;;;;;;;;143742;648;45915;-53
2021/07/20 09:17:31;;;;;;;8.80;6.03;;;;;;;;;;143739;573;50010;-53
2021/07/20 09:20:10;;;;;;;11.32;5.93;;;;;;;;;;143733;617;48020;-53
2021/07/20 09:22:58;;;;;;;12.82;5.75;;;;;;;;;;143741;569;47013;-54
2021/07/20 09:25:42;;;;;;;10.50;5.80;;;;;;;;;;143741;569;45910;-52
2021/07/20 09:28:42;;;;;;;13.93;6.30;;;;;;;;;;143745;565;46020;-53
2021/07/20 09:32:06;;;;;;;17.65;6.82;;;;;;;;;;143741;609;47021;-54
2021/07/20 09:35:18;;;;;;;11.63;6.15;;;;;;;;;;143740;598;47024;-54
2021/07/20 09:38:04;;;;;;;10.43;6.20;;;;;;;;;;143741;625;45911;-54
2021/07/20 09:41:16;;;;;;;7.97;5.62;;;;;;;;;;143746;570;46020;-53
2021/07/20 09:43:57;;;;;;;12.07;6.20;;;;;;;;;;143742;569;47022;-53
2021/07/20 09:47:02;;;;;;;12.43;5.93;;;;;;;;;;143740;602;47012;-53
2021/07/20 09:50:15;;;;;;;12.23;6.07;;;;;;;;;;143737;588;45913;-53
2021/07/20 09:53:30;;;;;;;7.57;6.12;;;;;;;;;;143744;567;45021;-53
2021/07/20 09:56:43;;;;;;;9.68;6.45;;;;;;;;;;143742;577;47022;-53
2021/07/20 09:59:53;;;;;;;6.45;5.40;;;;;;;;;;143740;586;47013;-54
2021/07/20 10:02:40;;;;;;;9.38;6.03;;;;;;;;;;143740;631;45912;-54
2021/07/20 10:05:20;;;;;;;7.37;5.93;;;;;;;;;;143745;564;45020;-54
2021/07/20 10:08:06;;;;;;;7.57;5.70;;;;;;;;;;143741;573;47023;-53
2021/07/20 10:11:15;;;;;;;9.05;5.90;;;;;;;;;;143739;588;47012;-54
2021/07/20 10:14:26;;;;;;;7.28;5.68;;;;;;;;;;143742;574;45021;-54
2021/07/20 10:17:44;;;;;;;8.43;6.32;;;;;;;;;;143744;599;45022;-54
2021/07/20 10:20:22;;;;;;;10.30;6.70;;;;;;;;;;143733;586;47020;-54
2021/07/20 10:23:35;;;;;;;9.95;6.53;;;;;;;;;;143741;579;47013;-54
2021/07/20 10:26:25;;;;;;;9.90;6.50;;;;;;;;;;143743;608;45022;-55
2021/07/20 10:29:26;;;;;;;8.77;6.30;;;;;;;;;;143745;656;46020;-55
2021/07/20 10:32:08;;;;;;;8.20;6.05;;;;;;;;;;143743;611;47020;-54
2021/07/20 10:34:43;;;;;;;19.35;6.45;;;;;;;;;;143738;610;47012;-55
2021/07/20 10:37:20;;;;;;;12.85;7.43;;;;;;;;;;143739;611;45913;-55
2021/07/20 10:40:04;;;;;;;11.88;7.03;;;;;;;;;;143746;643;46020;-54
2021/07/20 10:43:00;;;;;;;14.00;6.62;;;;;;;;;;143741;586;47022;-56
2021/07/20 10:45:33;;;;;;;14.68;7.03;;;;;;;;;;143739;610;47012;-55
2021/07/20 10:48:13;;;;;;;12.23;7.25;;;;;;;;;;143735;570;45914;-55
2021/07/20 10:51:07;;;;;;;20.17;8.35;;;;;;;;;;143745;590;45021;-54
2021/07/20 10:53:59;;;;;;;14.70;6.53;;;;;;;;;;143741;569;47021;-54
2021/07/20 10:56:41;;;;;;;10.68;6.40;;;;;;;;;;143740;652;47012;-54
2021/07/20 10:59:30;;;;;;;10.30;7.18;;;;;;;;;;143744;576;45021;-55
2021/07/20 11:02:40;;;;;;;8.75;6.75;;;;;;;;;;143746;609;46020;-55
2021/07/20 11:05:08;;;;;;;11.35;6.53;;;;;;;;;;143739;608;47022;-53
2021/07/20 11:08:08;;;;;;;8.80;6.75;;;;;;;;;;143738;593;47012;-54
2021/07/20 11:10:44;;;;;;;13.38;7.15;;;;;;;;;;143737;569;45912;-55
2021/07/20 11:13:20;;;;;;;9.20;6.25;;;;;;;;;;143743;626;45021;-55
2021/07/20 11:15:53;;;;;;;10.75;7.07;;;;;;;;;;143733;581;47020;-56
2021/07/20 11:18:23;;;;;;;;;;;;;;;;;;143744;980;47012;-55
2021/07/20 11:20:51;;;;;;;11.07;7.07;;;;;;;;;;143747;616;45021;-54
2021/07/20 11:23:19;;;;;;;12.10;8.27;;;;;;;;;;143743;582;45021;-55
2021/07/20 11:25:48;;;;;;;9.20;6.50;;;;;;;;;;143740;577;47020;-55
2021/07/20 11:28:16;;;;;;;8.30;6.03;;;;;;;;;;143740;569;46012;-55
2021/07/20 11:30:47;;;;;;;7.90;6.28;;;;;;;;;;143738;566;45915;-55
2021/07/20 11:33:19;;;;;;;7.80;6.05;;;;;;;;;;143743;621;45020;-56
2021/07/20 11:35:50;;;;;;;9.60;5.82;;;;;;;;;;143737;583;47021;-55
2021/07/20 11:38:21;;;;;;;7.37;5.97;;;;;;;;;;143739;590;47012;-55
2021/07/20 11:41:23;;;;;;;8.20;6.05;;;;;;;;;;143733;623;46012;-54
2021/07/20 11:44:03;;;;;;;6.28;5.55;;;;;;;;;;143744;620;45022;-55
2021/07/20 11:47:07;;;;;;;10.60;6.90;;;;;;;;;;143740;608;47023;-55
2021/07/20 11:50:02;;;;;;;11.57;6.15;;;;;;;;;;143739;565;47012;-55
2021/07/20 11:53:25;;;;;;;7.47;5.70;;;;;;;;;;143740;584;45021;-55
2021/07/20 11:56:30;;;;;;;11.57;5.97;;;;;;;;;;143744;575;45020;-54
2021/07/20 11:59:43;;;;;;;10.52;6.70;;;;;;;;;;143740;572;47021;-55
2021/07/20 12:02:50;;;;;;;11.18;5.57;;;;;;;;;;143736;587;47012;-53
2021/07/20 12:05:59;;;;;;;12.77;6.05;;;;;;;;;;143741;615;45021;-54
2021/07/20 12:09:32;;;;;;;14.45;5.82;;;;;;;;;;143743;701;45020;-54
2021/07/20 12:12:00;;;;;;;10.20;5.60;;;;;;;;;;143732;600;47022;-53
2021/07/20 12:14:27;;;;;;;12.98;5.70;;;;;;;;;;143739;594;46013;-54
2021/07/20 12:16:56;;;;;;;9.98;5.53;;;;;;;;;;143738;575;45914;-55
2021/07/20 12:19:36;;;;;;;8.13;6.12;;;;;;;;;;143744;588;45020;-53
2021/07/20 12:22:07;;;;;;;10.60;5.70;;;;;;;;;;143739;571;47021;-54
2021/07/20 12:24:35;;;;;;;13.73;5.70;;;;;;;;;;143737;567;47012;-54
2021/07/20 12:27:05;;;;;;;10.50;5.53;;;;;;;;;;143738;629;45914;-53
2021/07/20 12:29:37;;;;;;;8.95;5.93;;;;;;;;;;143743;591;45021;-54
2021/07/20 12:32:05;;;;;;;7.37;5.40;;;;;;;;;;143736;598;48020;-54
2021/07/20 12:34:32;;;;;;;7.40;5.70;;;;;;;;;;143739;582;47012;-53
2021/07/20 12:37:00;;;;;;;10.07;4.93;;;;;;;;;;143736;578;45021;-54
2021/07/20 12:39:29;;;;;;;9.20;5.32;;;;;;;;;;143741;659;45020;-53
2021/07/20 12:41:56;;;;;;;7.18;5.10;;;;;;;;;;143739;618;47022;-53
2021/07/20 12:44:24;;;;;;;11.65;5.97;;;;;;;;;;143737;569;47012;-54
2021/07/20 12:47:03;;;;;;;11.07;5.45;;;;;;;;;;143740;591;45914;-54
2021/07/20 12:49:30;;;;;;;9.00;5.53;;;;;;;;;;143743;596;45021;-55
2021/07/20 12:51:57;;;;;;;7.62;4.78;;;;;;;;;;143738;595;47023;-53
2021/07/20 12:54:39;;;;;;;9.40;5.85;;;;;;;;;;143737;619;47012;-53
2021/07/20 12:57:07;;;;;;;8.60;5.50;;;;;;;;;;143741;615;45021;-54
2021/07/20 12:59:40;;;;;;;9.05;5.90;;;;;;;;;;143743;586;45021;-53
2021/07/20 13:02:14;;;;;;;;;;;;;;;;;;143737;975;47031;-52
2021/07/20 13:04:46;;;;;;;9.40;5.68;;;;;;;;;;143743;601;47013;-54
2021/07/20 13:07:15;;;;;;;8.13;4.85;;;;;;;;;;143741;594;45021;-54
2021/07/20 13:09:44;;;;;;;6.80;5.10;;;;;;;;;;143742;596;46020;-54
2021/07/20 13:12:19;;;;;;;8.05;5.72;;;;;;;;;;143738;600;47022;-54
2021/07/20 13:14:47;;;;;;;8.15;5.18;;;;;;;;;;143737;605;47012;-54
2021/07/20 13:17:18;;;;;;;12.48;4.80;;;;;;;;;;143739;564;45914;-54
2021/07/20 13:19:46;;;;;;;9.30;5.15;;;;;;;;;;143742;644;47014;-53
2021/07/20 13:22:24;;;;;;;6.62;4.70;;;;;;;;;;143742;569;47020;-53
2021/07/20 13:24:53;;;;;;;12.75;5.20;;;;;;;;;;143738;572;47012;-53
2021/07/20 13:27:20;;;;;;;7.05;4.85;;;;;;;;;;143734;574;45914;-52
2021/07/20 13:29:50;;;;;;;7.20;5.03;;;;;;;;;;143742;647;45020;-53
2021/07/20 13:32:19;;;;;;;7.05;4.80;;;;;;;;;;143740;563;47022;-53
2021/07/20 13:34:50;;;;;;;6.57;4.62;;;;;;;;;;143738;575;47013;-54
2021/07/20 13:37:18;;;;;;;11.50;5.03;;;;;;;;;;143740;655;45914;-53
2021/07/20 13:39:46;;;;;;;7.03;5.20;;;;;;;;;;143743;586;45020;-54
2021/07/20 13:42:13;;;;;;;11.45;6.55;;;;;;;;;;143740;569;47021;-53
2021/07/20 13:44:40;;;;;;;11.95;6.35;;;;;;;;;;143737;571;47012;-54
2021/07/20 13:47:09;;;;;;;8.65;5.57;;;;;;;;;;143739;585;45020;-54
2021/07/20 13:49:37;;;;;;;12.05;5.30;;;;;;;;;;143743;596;45021;-53
2021/07/20 13:52:06;;;;;;;7.30;4.85;;;;;;;;;;143733;617;47020;-54
2021/07/20 13:54:40;;;;;;;6.80;4.90;;;;;;;;;;143739;630;47012;-53
2021/07/20 13:57:08;;;;;;;6.35;4.70;;;;;;;;;;143737;582;46014;-53
2021/07/20 13:59:38;;;;;;;10.60;5.10;;;;;;;;;;143741;649;46021;-53
2021/07/20 14:02:05;;;;;;;8.63;4.85;;;;;;;;;;143738;569;47022;-54
2021/07/20 14:04:33;;;;;;;9.25;4.97;;;;;;;;;;143740;612;46021;-53
2021/07/20 14:07:01;;;;;;;9.38;5.00;;;;;;;;;;143741;569;46012;-53
2021/07/20 14:09:30;;;;;;;8.57;5.07;;;;;;;;;;143741;618;45020;-54
2021/07/20 14:11:57;;;;;;;8.30;5.05;;;;;;;;;;143741;586;47021;-54
2021/07/20 14:14:25;;;;;;;7.40;5.25;;;;;;;;;;143740;566;46033;-53
2021/07/20 14:16:53;;;;;;;8.55;5.47;;;;;;;;;;143736;691;46012;-53
2021/07/20 14:19:21;;;;;;;9.02;5.25;;;;;;;;;;143742;658;46021;-53
2021/07/20 14:21:50;;;;;;;10.45;5.45;;;;;;;;;;143740;589;47020;-54
2021/07/20 14:24:18;;;;;;;7.57;5.25;;;;;;;;;;143737;643;46020;-53
2021/07/20 14:26:56;;;;;;;8.07;5.47;;;;;;;;;;143739;619;46013;-54
2021/07/20 14:29:30;;;;;;;12.55;6.62;;;;;;;;;;143743;595;45020;-54
2021/07/20 14:32:20;;;;;;;10.90;5.68;;;;;;;;;;143742;587;46022;-53
2021/07/20 14:34:55;;;;;;;9.30;5.78;;;;;;;;;;143739;617;46021;-53
2021/07/20 14:37:53;;;;;;;19.73;6.80;;;;;;;;;;143740;615;46012;-54
2021/07/20 14:40:29;;;;;;;9.88;6.10;;;;;;;;;;143742;662;46020;-54
2021/07/20 14:42:59;;;;;;;7.43;5.35;;;;;;;;;;143733;564;46023;-53
2021/07/20 14:45:29;;;;;;;8.10;5.53;;;;;;;;;;143738;588;46918;-53
2021/07/20 14:48:09;;;;;;;9.10;4.90;;;;;;;;;;143740;563;46012;-54
2021/07/20 14:50:41;;;;;;;8.80;5.15;;;;;;;;;;143743;565;46021;-53
2021/07/20 14:53:20;;;;;;;7.18;5.20;;;;;;;;;;143741;578;46022;-54
2021/07/20 14:55:50;;;;;;;10.10;5.40;;;;;;;;;;143740;577;46020;-53
2021/07/20 14:58:24;;;;;;;7.78;5.35;;;;;;;;;;143741;572;46012;-53
2021/07/20 15:01:00;;;;;;;6.57;5.10;;;;;;;;;;143744;671;45020;-53
2021/07/20 15:03:57;;;;;;;7.65;4.82;;;;;;;;;;143738;571;46915;-53
2021/07/20 15:06:30;;;;;;;7.35;5.30;;;;;;;;;;143739;671;46021;-53
2021/07/20 15:09:19;;;;;;;9.02;5.47;;;;;;;;;;143736;569;46012;-53
2021/07/20 15:11:51;;;;;;;8.43;5.47;;;;;;;;;;143740;682;46020;-53
2021/07/20 15:14:25;;;;;;;7.20;5.28;;;;;;;;;;143741;716;46021;-54
2021/07/20 15:17:10;;;;;;;8.02;4.90;;;;;;;;;;143737;643;47012;-53